createdAt,value
2023-05-10T00:00:32.394Z,4.70
2023-05-10T00:03:11.065Z,4.50
2023-05-10T00:05:39.129Z,5.10
2023-05-10T00:08:07.126Z,4.60
2023-05-10T00:10:35.125Z,4.50
2023-05-10T00:13:03.904Z,4.60
2023-05-10T00:15:32.130Z,5.00
2023-05-10T00:18:00.214Z,5.10
2023-05-10T00:20:28.232Z,4.40
2023-05-10T00:22:56.207Z,4.80
2023-05-10T00:25:24.230Z,4.20
2023-05-10T00:27:52.242Z,4.20
2023-05-10T00:30:20.311Z,4.50
2023-05-10T00:32:49.326Z,4.40
2023-05-10T00:35:17.473Z,4.60
2023-05-10T00:37:46.414Z,4.20
2023-05-10T00:40:15.195Z,4.20
2023-05-10T00:42:45.030Z,4.10
2023-05-10T00:45:13.051Z,3.80
2023-05-10T00:47:41.727Z,3.80
2023-05-10T00:50:10.424Z,3.90
2023-05-10T00:52:38.528Z,3.50
2023-05-10T00:55:08.200Z,4.00
2023-05-10T00:57:36.226Z,3.50
2023-05-10T01:00:04.930Z,4.10
2023-05-10T01:02:35.265Z,4.50
2023-05-10T01:05:07.349Z,4.40
2023-05-10T01:07:35.379Z,3.90
2023-05-10T01:10:03.658Z,4.10
2023-05-10T01:12:31.947Z,4.30
2023-05-10T01:15:02.628Z,4.10
2023-05-10T01:17:31.242Z,4.20
2023-05-10T01:19:59.449Z,4.10
2023-05-10T01:22:40.412Z,4.60
2023-05-10T01:25:38.674Z,4.20
2023-05-10T01:28:33.127Z,4.70
2023-05-10T01:31:31.943Z,5.40
2023-05-10T01:34:10.730Z,4.80
2023-05-10T01:36:49.414Z,4.40
2023-05-10T01:39:56.483Z,3.60
2023-05-10T01:45:03.590Z,4.20
2023-05-10T01:48:11.075Z,3.80
2023-05-10T01:53:12.703Z,4.70
2023-05-10T01:55:50.615Z,4.10
2023-05-10T01:58:23.683Z,4.80
2023-05-10T02:00:54.920Z,4.60
2023-05-10T02:03:25.667Z,4.70
2023-05-10T02:05:55.548Z,4.50
2023-05-10T02:08:24.838Z,4.90
2023-05-10T02:10:56.886Z,5.30
2023-05-10T02:13:27.229Z,5.10
2023-05-10T02:15:56.765Z,4.90
2023-05-10T02:18:26.874Z,5.10
2023-05-10T02:20:56.656Z,5.00
2023-05-10T02:23:26.126Z,5.20
2023-05-10T02:25:56.082Z,4.80
2023-05-10T02:28:26.205Z,4.90
2023-05-10T02:30:55.350Z,5.30
2023-05-10T02:33:24.634Z,5.80
2023-05-10T02:35:54.424Z,5.20
2023-05-10T02:38:25.530Z,5.60
2023-05-10T02:40:54.749Z,4.90
2023-05-10T02:43:25.829Z,5.00
2023-05-10T02:45:54.182Z,5.50
2023-05-10T02:48:22.190Z,5.20
2023-05-10T02:50:53.524Z,5.30
2023-05-10T02:53:35.479Z,5.10
2023-05-10T02:56:12.159Z,5.40
2023-05-10T03:01:08.887Z,5.60
2023-05-10T03:03:37.173Z,4.70
2023-05-10T03:06:05.615Z,5.40
2023-05-10T03:08:33.647Z,5.50
2023-05-10T03:11:23.310Z,5.20
2023-05-10T03:13:52.119Z,4.40
2023-05-10T03:16:28.533Z,4.70
2023-05-10T03:19:26.003Z,4.60
2023-05-10T03:22:17.076Z,4.30
2023-05-10T03:25:06.839Z,3.60
2023-05-10T03:27:38.389Z,3.90
2023-05-10T03:30:11.745Z,4.10
2023-05-10T03:33:00.012Z,4.10
2023-05-10T03:35:48.160Z,3.90
2023-05-10T03:38:37.030Z,4.00
2023-05-10T03:41:25.604Z,3.70
2023-05-10T03:44:54.445Z,4.00
2023-05-10T03:47:43.489Z,4.80
2023-05-10T03:50:12.986Z,4.10
2023-05-10T03:53:00.975Z,3.10
2023-05-10T03:55:30.537Z,4.70
2023-05-10T03:57:59.071Z,4.20
2023-05-10T04:00:27.257Z,5.10
2023-05-10T04:02:55.620Z,4.30
2023-05-10T04:05:24.846Z,4.50
2023-05-10T04:07:54.476Z,4.70
2023-05-10T04:10:43.034Z,4.20
2023-05-10T04:13:31.171Z,4.50
2023-05-10T04:16:00.348Z,4.40
2023-05-10T04:18:28.643Z,4.10
2023-05-10T04:21:16.788Z,4.30
2023-05-10T04:23:44.889Z,5.10
2023-05-10T04:26:34.045Z,4.30
2023-05-10T04:29:02.121Z,4.50
2023-05-10T04:31:30.176Z,5.00
2023-05-10T04:33:58.222Z,5.10
2023-05-10T04:36:26.097Z,5.50
2023-05-10T04:38:54.172Z,5.10
2023-05-10T04:41:22.126Z,6.20
2023-05-10T04:43:50.592Z,5.00
2023-05-10T04:46:18.700Z,5.60
2023-05-10T04:48:46.759Z,6.30
2023-05-10T04:51:14.795Z,6.30
2023-05-10T04:53:46.439Z,6.30
2023-05-10T04:56:19.432Z,6.80
2023-05-10T04:58:47.436Z,5.60
2023-05-10T05:01:15.473Z,5.50
2023-05-10T05:03:45.929Z,5.70
2023-05-10T05:06:13.964Z,5.20
2023-05-10T05:08:41.964Z,3.90
2023-05-10T05:11:09.957Z,4.20
2023-05-10T05:13:39.473Z,4.30
2023-05-10T05:16:07.757Z,4.10
2023-05-10T05:18:35.714Z,3.40
2023-05-10T05:21:03.788Z,3.00
2023-05-10T05:23:31.764Z,3.60
2023-05-10T05:25:59.607Z,3.60
2023-05-10T05:28:29.798Z,3.90
2023-05-10T05:30:57.663Z,4.10
2023-05-10T05:33:25.538Z,3.40
2023-05-10T05:35:53.567Z,3.30
2023-05-10T05:38:21.465Z,2.70
2023-05-10T05:40:49.396Z,3.60
2023-05-10T05:43:17.297Z,3.10
2023-05-10T05:45:45.188Z,3.40
2023-05-10T05:48:13.057Z,3.00
2023-05-10T05:50:41.079Z,3.10
2023-05-10T05:53:09.806Z,3.10
2023-05-10T05:55:37.938Z,3.00
2023-05-10T05:58:05.884Z,3.30
2023-05-10T06:00:33.954Z,3.00
2023-05-10T06:03:01.980Z,3.20
2023-05-10T06:05:30.628Z,3.70
2023-05-10T06:08:01.141Z,3.90
2023-05-10T06:10:29.161Z,3.60
2023-05-10T06:12:57.237Z,3.70
2023-05-10T06:15:25.346Z,3.10
2023-05-10T06:17:53.353Z,3.30
2023-05-10T06:20:21.326Z,3.60
2023-05-10T06:22:49.237Z,3.70
2023-05-10T06:25:19.227Z,3.50
2023-05-10T06:27:51.147Z,3.10
2023-05-10T06:30:21.356Z,3.30
2023-05-10T06:32:49.377Z,3.30
2023-05-10T06:35:18.024Z,3.30
2023-05-10T06:37:46.150Z,3.10
2023-05-10T06:40:14.416Z,3.10
2023-05-10T06:42:42.305Z,3.00
2023-05-10T06:45:10.899Z,3.10
2023-05-10T06:47:39.433Z,3.60
2023-05-10T06:50:09.470Z,3.20
2023-05-10T06:52:37.398Z,3.60
2023-05-10T06:55:06.167Z,3.20
2023-05-10T06:57:34.297Z,3.30
2023-05-10T07:00:05.132Z,3.40
2023-05-10T07:02:33.580Z,4.00
2023-05-10T07:05:03.665Z,3.40
2023-05-10T07:07:32.219Z,3.80
2023-05-10T07:10:00.148Z,3.40
2023-05-10T07:12:28.485Z,3.10
2023-05-10T07:14:56.363Z,3.30
2023-05-10T07:17:25.529Z,3.70
2023-05-10T07:19:53.678Z,3.60
2023-05-10T07:22:21.648Z,4.20
2023-05-10T07:24:49.527Z,4.00
2023-05-10T07:27:17.427Z,4.20
2023-05-10T07:29:45.246Z,4.00
2023-05-10T07:32:13.198Z,3.60
2023-05-10T07:34:41.238Z,3.60
2023-05-10T07:37:09.051Z,3.70
2023-05-10T07:39:37.034Z,3.70
2023-05-10T07:42:05.025Z,3.40
2023-05-10T07:44:32.889Z,3.50
2023-05-10T07:47:00.875Z,3.40
2023-05-10T07:49:28.827Z,3.30
2023-05-10T07:51:56.738Z,2.90
2023-05-10T07:54:24.683Z,4.10
2023-05-10T07:56:52.682Z,3.30
2023-05-10T07:59:21.108Z,3.20
2023-05-10T08:01:49.044Z,3.30
2023-05-10T08:04:17.117Z,3.40
2023-05-10T08:06:45.070Z,3.10
2023-05-10T08:09:12.986Z,2.70
2023-05-10T08:11:42.503Z,2.90
2023-05-10T08:14:10.460Z,2.80
2023-05-10T08:16:38.251Z,3.20
2023-05-10T08:19:06.438Z,3.30
2023-05-10T08:21:34.548Z,2.70
2023-05-10T08:24:02.744Z,3.00
2023-05-10T08:26:30.752Z,3.00
2023-05-10T08:28:58.654Z,2.60
2023-05-10T08:31:26.500Z,2.40
2023-05-10T08:33:54.540Z,2.20
2023-05-10T08:36:25.130Z,2.50
2023-05-10T08:38:53.355Z,3.10
2023-05-10T08:41:22.472Z,2.50
2023-05-10T08:43:52.253Z,2.40
2023-05-10T08:46:21.644Z,2.20
2023-05-10T08:48:52.706Z,2.20
2023-05-10T08:51:27.661Z,2.20
2023-05-10T08:53:56.497Z,1.80
2023-05-10T08:56:25.203Z,1.90
2023-05-10T08:58:53.639Z,2.40
2023-05-10T09:01:22.837Z,3.00
2023-05-10T09:03:51.875Z,2.10
2023-05-10T09:06:20.002Z,2.40
2023-05-10T09:08:48.730Z,2.20
2023-05-10T09:11:18.301Z,2.20
2023-05-10T09:13:47.382Z,2.70
2023-05-10T09:16:21.600Z,2.50
2023-05-10T09:18:50.841Z,1.90
2023-05-10T09:21:21.594Z,2.10
2023-05-10T09:23:51.328Z,1.90
2023-05-10T09:26:23.625Z,1.80
2023-05-10T09:28:57.226Z,1.80
2023-05-10T09:31:28.471Z,2.10
2023-05-10T09:33:56.369Z,2.00
2023-05-10T09:36:24.394Z,1.80
2023-05-10T09:38:53.793Z,2.10
2023-05-10T09:41:23.747Z,1.90
2023-05-10T09:43:56.124Z,2.00
2023-05-10T09:46:24.208Z,2.10
2023-05-10T09:48:52.352Z,2.10
2023-05-10T09:51:21.796Z,2.00
2023-05-10T09:54:09.614Z,1.80
2023-05-10T09:56:40.000Z,2.00
2023-05-10T09:59:11.438Z,2.10
2023-05-10T10:01:40.197Z,5.60
2023-05-10T10:04:10.791Z,1.60
2023-05-10T10:06:40.216Z,1.60
2023-05-10T10:09:09.205Z,1.60
2023-05-10T10:11:38.770Z,1.90
2023-05-10T10:14:07.029Z,3.10
2023-05-10T10:16:35.091Z,2.30
2023-05-10T10:19:03.286Z,1.80
2023-05-10T10:21:32.095Z,1.80
2023-05-10T10:24:00.088Z,2.50
2023-05-10T10:26:28.488Z,1.40
2023-05-10T10:29:11.427Z,2.10
2023-05-10T10:31:43.032Z,1.90
2023-05-10T10:34:19.562Z,2.10
2023-05-10T10:39:16.964Z,1.80
2023-05-10T10:41:56.357Z,1.30
2023-05-10T10:44:27.216Z,1.60
2023-05-10T10:47:30.169Z,1.70
2023-05-10T10:50:01.683Z,1.90
2023-05-10T10:52:35.488Z,1.20
2023-05-10T10:55:03.841Z,1.40
2023-05-10T10:57:53.479Z,1.50
2023-05-10T11:00:33.294Z,1.70
2023-05-10T11:03:08.540Z,1.40
2023-05-10T11:05:43.771Z,1.40
2023-05-10T11:08:13.423Z,1.50
2023-05-10T11:10:55.092Z,1.30
2023-05-10T11:13:40.780Z,1.20
2023-05-10T11:16:14.357Z,1.30
2023-05-10T11:18:54.398Z,1.20
2023-05-10T11:21:22.584Z,1.10
2023-05-10T11:23:52.879Z,1.20
2023-05-10T11:26:24.248Z,1.30
2023-05-10T11:28:54.705Z,1.30
2023-05-10T11:31:25.012Z,1.40
2023-05-10T11:33:56.102Z,1.40
2023-05-10T11:36:29.591Z,1.30
2023-05-10T11:38:58.007Z,1.40
2023-05-10T11:41:27.879Z,1.10
2023-05-10T11:43:57.054Z,1.20
2023-05-10T11:46:30.771Z,1.40
2023-05-10T11:49:02.829Z,1.40
2023-05-10T11:51:34.849Z,1.30
2023-05-10T11:54:08.342Z,1.40
2023-05-10T11:56:38.340Z,1.20
2023-05-10T11:59:26.347Z,1.40
2023-05-10T12:01:54.598Z,1.50
2023-05-10T12:04:23.523Z,1.40
2023-05-10T12:06:51.806Z,1.90
2023-05-10T12:09:31.497Z,2.20
2023-05-10T12:12:04.025Z,1.60
2023-05-10T12:14:36.860Z,1.40
2023-05-10T12:17:05.022Z,1.40
2023-05-10T12:19:40.238Z,1.80
2023-05-10T12:22:08.476Z,1.40
2023-05-10T12:24:39.276Z,1.40
2023-05-10T12:27:32.729Z,1.60
2023-05-10T12:30:01.401Z,1.30
2023-05-10T12:32:42.469Z,1.60
2023-05-10T12:35:10.722Z,1.00
2023-05-10T12:37:40.312Z,1.40
2023-05-10T12:40:10.512Z,1.50
2023-05-10T12:42:40.100Z,1.30
2023-05-10T12:45:09.853Z,1.10
2023-05-10T12:47:57.951Z,1.20
2023-05-10T12:50:26.000Z,1.40
2023-05-10T12:52:54.122Z,1.60
2023-05-10T12:55:22.218Z,1.20
2023-05-10T12:57:50.458Z,1.90
2023-05-10T13:00:19.101Z,1.10
2023-05-10T13:02:47.380Z,1.70
2023-05-10T13:05:15.580Z,1.00
2023-05-10T13:07:44.994Z,1.10
2023-05-10T13:10:13.360Z,1.10
2023-05-10T13:12:41.607Z,1.20
2023-05-10T13:15:10.098Z,0.80
2023-05-10T13:17:40.075Z,1.00
2023-05-10T13:20:08.478Z,1.30
2023-05-10T13:22:40.557Z,1.00
2023-05-10T13:25:09.655Z,1.20
2023-05-10T13:27:38.610Z,1.00
2023-05-10T13:30:07.965Z,1.10
2023-05-10T13:32:36.628Z,1.20
2023-05-10T13:35:05.564Z,1.00
2023-05-10T13:37:36.604Z,1.10
2023-05-10T13:40:05.633Z,1.10
2023-05-10T13:42:34.565Z,1.10
2023-05-10T13:45:02.896Z,1.00
2023-05-10T13:47:32.101Z,1.00
2023-05-10T13:50:00.122Z,0.90
2023-05-10T13:52:28.228Z,1.10
2023-05-10T13:54:56.344Z,1.30
2023-05-10T13:57:25.177Z,1.10
2023-05-10T13:59:54.721Z,1.40
2023-05-10T14:02:24.082Z,1.30
2023-05-10T14:04:52.217Z,1.10
2023-05-10T14:07:20.488Z,1.40
2023-05-10T14:09:48.683Z,1.00
2023-05-10T14:12:17.332Z,1.30
2023-05-10T14:14:46.315Z,1.20
2023-05-10T14:17:14.322Z,1.40
2023-05-10T14:19:42.391Z,1.00
2023-05-10T14:22:10.440Z,1.40
2023-05-10T14:24:39.267Z,1.20
2023-05-10T14:27:08.141Z,1.20
2023-05-10T14:29:36.844Z,1.00
2023-05-10T14:32:06.232Z,1.30
2023-05-10T14:34:36.704Z,1.10
2023-05-10T14:37:05.726Z,1.20
2023-05-10T14:39:34.507Z,1.10
2023-05-10T14:42:24.219Z,1.60
2023-05-10T14:45:13.210Z,1.30
2023-05-10T14:48:01.666Z,1.70
2023-05-10T14:50:36.687Z,1.10
2023-05-10T14:53:45.566Z,1.20
2023-05-10T14:58:41.664Z,1.10
2023-05-10T15:01:09.722Z,0.90
2023-05-10T15:03:38.467Z,1.30
2023-05-10T15:06:07.335Z,1.00
2023-05-10T15:08:35.439Z,1.00
2023-05-10T15:11:04.079Z,1.10
2023-05-10T15:13:31.963Z,1.20
2023-05-10T15:15:59.916Z,0.90
2023-05-10T15:18:28.045Z,1.30
2023-05-10T15:20:56.392Z,1.00
2023-05-10T15:23:24.328Z,1.10
2023-05-10T15:25:56.530Z,1.00
2023-05-10T15:28:24.804Z,0.90
2023-05-10T15:30:52.885Z,1.10
2023-05-10T15:33:20.853Z,1.20
2023-05-10T15:35:48.834Z,1.20
2023-05-10T15:38:16.781Z,1.50
2023-05-10T15:40:44.714Z,1.10
2023-05-10T15:43:12.688Z,1.00
2023-05-10T15:45:41.206Z,1.20
2023-05-10T15:48:09.269Z,1.00
2023-05-10T15:50:37.393Z,1.00
2023-05-10T15:53:05.737Z,0.90
2023-05-10T15:55:35.120Z,1.40
2023-05-10T15:58:03.184Z,1.40
2023-05-10T16:00:31.385Z,1.50
2023-05-10T16:02:59.483Z,1.50
2023-05-10T16:05:32.012Z,1.40
2023-05-10T16:08:03.352Z,1.10
2023-05-10T16:10:34.476Z,1.10
2023-05-10T16:13:03.889Z,1.10
2023-05-10T16:15:31.997Z,1.30
2023-05-10T16:18:00.228Z,1.10
2023-05-10T16:20:30.054Z,1.00
2023-05-10T16:23:03.338Z,1.30
2023-05-10T16:25:32.115Z,1.30
2023-05-10T16:28:23.248Z,1.60
2023-05-10T16:30:51.786Z,1.40
2023-05-10T16:33:19.747Z,1.50
2023-05-10T16:35:47.829Z,1.30
2023-05-10T16:38:15.754Z,1.40
2023-05-10T16:40:43.739Z,1.40
2023-05-10T16:43:12.003Z,1.20
2023-05-10T16:45:39.861Z,1.70
2023-05-10T16:48:07.788Z,1.80
2023-05-10T16:50:35.806Z,1.50
2023-05-10T16:53:04.377Z,1.80
2023-05-10T16:55:32.258Z,1.60
2023-05-10T16:58:01.014Z,1.70
2023-05-10T17:00:29.500Z,1.70
2023-05-10T17:02:57.498Z,1.40
2023-05-10T17:05:26.657Z,1.80
2023-05-10T17:07:54.804Z,1.50
2023-05-10T17:10:23.037Z,2.00
2023-05-10T17:12:51.539Z,1.90
2023-05-10T17:15:20.751Z,1.90
2023-05-10T17:17:49.138Z,1.70
2023-05-10T17:20:17.087Z,1.60
2023-05-10T17:22:44.984Z,1.60
2023-05-10T17:25:12.952Z,1.70
2023-05-10T17:27:41.090Z,2.00
2023-05-10T17:30:09.368Z,2.10
2023-05-10T17:32:37.255Z,1.90
2023-05-10T17:35:06.345Z,1.70
2023-05-10T17:37:34.276Z,1.70
2023-05-10T17:40:03.437Z,3.00
2023-05-10T17:42:31.344Z,2.50
2023-05-10T17:44:59.518Z,3.20
2023-05-10T17:47:27.955Z,2.90
2023-05-10T17:49:55.805Z,2.50
2023-05-10T17:52:23.796Z,2.70
2023-05-10T17:54:54.963Z,2.70
2023-05-10T17:57:23.730Z,2.70
2023-05-10T17:59:51.672Z,3.10
2023-05-10T18:02:19.588Z,2.80
2023-05-10T18:04:49.462Z,2.20
2023-05-10T18:07:17.572Z,2.20
2023-05-10T18:09:45.568Z,3.00
2023-05-10T18:12:13.777Z,3.50
2023-05-10T18:14:42.791Z,3.90
2023-05-10T18:17:11.032Z,4.00
2023-05-10T18:19:40.146Z,3.10
2023-05-10T18:22:11.112Z,2.70
2023-05-10T18:24:40.103Z,2.80
2023-05-10T18:27:09.205Z,3.00
2023-05-10T18:29:37.575Z,3.10
2023-05-10T18:32:06.378Z,3.40
2023-05-10T18:34:34.524Z,3.30
2023-05-10T18:37:07.406Z,3.00
2023-05-10T18:39:38.652Z,3.70
2023-05-10T18:42:06.814Z,2.90
2023-05-10T18:44:34.872Z,3.20
2023-05-10T18:47:02.813Z,2.60
2023-05-10T18:49:30.727Z,2.70
2023-05-10T18:51:58.642Z,3.20
2023-05-10T18:54:26.880Z,2.60
2023-05-10T18:56:54.753Z,2.70
2023-05-10T18:59:22.929Z,2.60
2023-05-10T19:01:51.424Z,3.30
2023-05-10T19:04:19.607Z,4.60
2023-05-10T19:07:07.665Z,3.10
2023-05-10T19:09:35.667Z,3.30
2023-05-10T19:12:03.940Z,2.60
2023-05-10T19:14:32.098Z,3.50
2023-05-10T19:17:03.076Z,3.20
2023-05-10T19:19:32.398Z,3.30
2023-05-10T19:22:04.129Z,3.40
2023-05-10T19:24:34.902Z,4.10
2023-05-10T19:27:02.904Z,3.40
2023-05-10T19:29:31.145Z,3.40
2023-05-10T19:31:59.227Z,3.50
2023-05-10T19:34:28.872Z,3.20
2023-05-10T19:37:16.961Z,3.60
2023-05-10T19:39:45.167Z,3.50
2023-05-10T19:42:13.054Z,3.40
2023-05-10T19:44:41.124Z,3.40
2023-05-10T19:47:09.360Z,3.40
2023-05-10T19:49:37.334Z,3.70
2023-05-10T19:52:07.858Z,3.30
2023-05-10T19:54:36.132Z,2.90
2023-05-10T19:57:04.300Z,3.00
2023-05-10T19:59:32.293Z,2.90
2023-05-10T20:02:00.186Z,3.90
2023-05-10T20:04:28.941Z,2.90
2023-05-10T20:06:56.879Z,2.70
2023-05-10T20:09:24.900Z,3.00
2023-05-10T20:11:52.739Z,2.80
2023-05-10T20:14:20.673Z,3.70
2023-05-10T20:16:48.751Z,3.60
2023-05-10T20:19:17.408Z,3.20
2023-05-10T20:21:45.383Z,3.30
2023-05-10T20:24:13.402Z,3.20
2023-05-10T20:26:41.301Z,3.40
2023-05-10T20:29:09.607Z,3.30
2023-05-10T20:31:37.511Z,4.00
2023-05-10T20:34:05.752Z,3.70
2023-05-10T20:36:33.651Z,3.90
2023-05-10T20:39:01.607Z,4.50
2023-05-10T20:41:29.580Z,3.60
2023-05-10T20:43:57.574Z,3.50
2023-05-10T20:46:27.123Z,4.00
2023-05-10T20:48:55.330Z,3.90
2023-05-10T20:51:24.292Z,4.20
2023-05-10T20:53:52.107Z,4.00
2023-05-10T20:56:20.017Z,4.00
2023-05-10T20:58:48.079Z,4.10
2023-05-10T21:01:16.081Z,4.20
2023-05-10T21:03:44.230Z,4.20
2023-05-10T21:06:12.155Z,4.20
2023-05-10T21:08:40.129Z,4.10
2023-05-10T21:11:08.118Z,4.20
2023-05-10T21:13:56.060Z,4.20
2023-05-10T21:16:24.018Z,3.60
2023-05-10T21:18:52.093Z,4.30
2023-05-10T21:21:20.205Z,4.20
2023-05-10T21:23:48.251Z,4.10
2023-05-10T21:26:18.441Z,4.50
2023-05-10T21:28:46.516Z,4.20
2023-05-10T21:31:16.566Z,4.10
2023-05-10T21:33:45.879Z,4.20
2023-05-10T21:36:14.152Z,4.00
2023-05-10T21:38:45.117Z,4.40
2023-05-10T21:41:33.026Z,3.80
2023-05-10T21:44:01.309Z,4.70
2023-05-10T21:46:29.314Z,4.60
2023-05-10T21:48:57.478Z,4.40
2023-05-10T21:51:25.615Z,4.70
2023-05-10T21:53:53.527Z,4.20
2023-05-10T21:56:21.631Z,4.20
2023-05-10T21:58:49.686Z,4.80
2023-05-10T22:01:18.189Z,4.10
2023-05-10T22:03:46.544Z,4.40
2023-05-10T22:06:14.521Z,4.60
2023-05-10T22:08:42.617Z,4.50
2023-05-10T22:11:10.713Z,4.60
2023-05-10T22:13:38.731Z,3.80
2023-05-10T22:16:07.147Z,4.90
2023-05-10T22:18:35.211Z,4.20
2023-05-10T22:21:03.248Z,4.60
2023-05-10T22:23:31.891Z,4.50
2023-05-10T22:26:01.740Z,4.40
2023-05-10T22:28:30.488Z,4.40
2023-05-10T22:30:58.634Z,4.50
2023-05-10T22:33:26.878Z,4.90
2023-05-10T22:35:56.128Z,4.40
2023-05-10T22:38:24.224Z,4.90
2023-05-10T22:40:52.210Z,3.90
2023-05-10T22:43:20.332Z,4.30
2023-05-10T22:45:48.365Z,4.20
2023-05-10T22:48:17.253Z,4.60
2023-05-10T22:50:45.417Z,4.40
2023-05-10T22:53:13.529Z,4.30
2023-05-10T22:55:41.785Z,4.30
2023-05-10T22:58:09.804Z,4.10
2023-05-10T23:00:38.389Z,4.70
2023-05-10T23:03:06.959Z,4.40
2023-05-10T23:05:35.215Z,4.20
2023-05-10T23:08:03.170Z,4.60
2023-05-10T23:10:31.507Z,3.90
2023-05-10T23:12:59.674Z,4.20
2023-05-10T23:15:27.710Z,4.10
2023-05-10T23:17:56.616Z,4.40
2023-05-10T23:20:25.000Z,3.90
2023-05-10T23:22:53.105Z,4.60
2023-05-10T23:25:21.233Z,4.60
2023-05-10T23:27:49.359Z,4.50
2023-05-10T23:30:17.900Z,4.70
2023-05-10T23:32:46.234Z,4.30
2023-05-10T23:35:15.469Z,4.70
2023-05-10T23:37:43.554Z,4.60
2023-05-10T23:40:11.983Z,4.30
2023-05-10T23:42:40.365Z,4.30
2023-05-10T23:45:08.949Z,5.00
2023-05-10T23:47:37.057Z,4.80
2023-05-10T23:50:05.969Z,5.10
2023-05-10T23:52:34.065Z,5.10
2023-05-10T23:55:02.364Z,4.60
2023-05-10T23:57:30.351Z,4.70
2023-05-10T23:59:58.530Z,4.80
